Time;durP1;ratioP1;P1;durP2;ratioP2;P2;SDS_P1;SDS_P2;PMS_P1;PMS_P2;Temp;Humidity;BMP_temperature;BMP_pressure;BME280_temperature;BME280_humidity;BME280_pressure;Samples;Min_cycle;Max_cycle;Signal;HPM_P1;HPM_P2
2022/04/05 00:01:08;;;;;;;10.85;8.07;;;20.70;45.60;;;;;;4990720;28;20231;-67
2022/04/05 00:03:34;;;;;;;7.85;7.05;;;20.80;45.70;;;;;;5010269;28;20204;-67
2022/04/05 00:06:00;;;;;;;8.57;7.05;;;20.70;45.60;;;;;;5013085;28;20191;-67
2022/04/05 00:08:26;;;;;;;9.93;7.65;;;20.70;45.60;;;;;;5013774;28;20184;-67
2022/04/05 00:10:52;;;;;;;9.50;7.25;;;20.70;45.60;;;;;;5013875;28;20187;-67
2022/04/05 00:13:18;;;;;;;8.63;6.70;;;20.80;45.70;;;;;;5013534;28;20211;-67
2022/04/05 00:15:43;;;;;;;8.70;7.10;;;20.70;45.60;;;;;;5029626;28;20335;-67
2022/04/05 00:18:09;;;;;;;10.15;6.75;;;20.80;45.70;;;;;;5013278;28;20192;-67
2022/04/05 00:20:35;;;;;;;8.18;6.82;;;20.70;45.50;;;;;;4997433;28;20212;-67
2022/04/05 00:23:01;;;;;;;9.23;7.43;;;20.70;45.60;;;;;;5013263;28;20255;-67
2022/04/05 00:25:27;;;;;;;9.07;7.25;;;20.70;45.60;;;;;;5013218;28;20195;-67
2022/04/05 00:27:53;;;;;;;8.52;6.60;;;20.70;45.60;;;;;;4996879;28;20180;-67
2022/04/05 00:30:19;;;;;;;8.18;6.85;;;20.70;45.60;;;;;;5013102;28;20188;-67
2022/04/05 00:32:45;;;;;;;7.90;6.57;;;20.70;45.60;;;;;;5012834;28;20204;-67
2022/04/05 00:35:12;;;;;;;7.88;6.65;;;20.70;45.60;;;;;;5012950;28;20190;-68
2022/04/05 00:37:38;;;;;;;7.28;6.25;;;20.70;45.60;;;;;;5013215;28;20275;-67
2022/04/05 00:40:06;;;;;;;7.47;6.10;;;20.70;45.60;;;;;;5013108;28;20177;-66
2022/04/05 00:42:34;;;;;;;9.30;6.35;;;20.70;45.60;;;;;;5013103;28;20272;-67
2022/04/05 00:45:00;;;;;;;7.28;6.20;;;20.70;45.60;;;;;;5004182;28;20659;-67
2022/04/05 00:47:26;;;;;;;7.75;6.88;;;20.70;45.60;;;;;;5012623;28;20184;-67
2022/04/05 00:49:53;;;;;;;8.25;6.53;;;20.70;45.60;;;;;;4996500;28;20207;-67
2022/04/05 00:52:21;;;;;;;6.95;6.25;;;20.70;45.60;;;;;;5013031;28;20597;-67
2022/04/05 00:54:50;;;;;;;6.72;5.53;;;20.70;45.60;;;;;;4996053;28;20218;-66
2022/04/05 00:57:24;;;;;;;6.55;5.65;;;20.70;45.60;;;;;;5009363;28;20204;-67
2022/04/05 01:00:03;;;;;;;8.05;6.40;;;20.70;45.60;;;;;;4993238;28;20752;-67
2022/04/05 01:02:30;;;;;;;7.22;6.35;;;20.70;45.60;;;;;;4993041;28;20188;-67
2022/04/05 01:04:56;;;;;;;7.40;6.35;;;20.70;45.60;;;;;;4992901;28;20192;-68
2022/04/05 01:07:23;;;;;;;6.90;6.20;;;20.80;45.60;;;;;;4994188;28;20181;-65
2022/04/05 01:09:57;;;;;;;8.10;6.43;;;20.70;45.60;;;;;;4994277;28;20181;-67
2022/04/05 01:12:23;;;;;;;7.03;6.20;;;20.70;45.60;;;;;;4992738;28;20189;-66
2022/04/05 01:14:51;;;;;;;6.97;6.00;;;20.80;45.70;;;;;;5005527;28;20619;-67
2022/04/05 01:17:18;;;;;;;6.00;5.30;;;20.70;45.70;;;;;;5011161;28;20220;-67
2022/04/05 01:19:47;;;;;;;7.63;5.97;;;20.70;45.60;;;;;;5012301;28;20188;-67
2022/04/05 01:22:13;;;;;;;6.95;5.82;;;20.70;45.60;;;;;;4996051;28;20208;-67
2022/04/05 01:24:39;;;;;;;6.03;5.43;;;20.80;45.60;;;;;;4995698;28;20207;-67
2022/04/05 01:27:09;;;;;;;6.10;5.50;;;20.70;45.60;;;;;;5011988;28;20188;-67
2022/04/05 01:29:35;;;;;;;7.05;6.10;;;20.70;45.60;;;;;;5013368;28;20198;-67
2022/04/05 01:32:07;;;;;;;8.40;5.88;;;20.70;45.70;;;;;;5012300;28;20184;-67
2022/04/05 01:34:35;;;;;;;7.35;5.90;;;20.80;45.70;;;;;;5011644;28;20211;-67
2022/04/05 01:37:05;;;;;;;7.03;5.93;;;20.70;45.60;;;;;;5011999;28;20299;-67
2022/04/05 01:39:33;;;;;;;6.47;5.32;;;20.80;45.70;;;;;;5011781;28;20567;-67
2022/04/05 01:42:27;;;;;;;6.68;5.85;;;20.80;45.70;;;;;;5011760;28;20244;-67
2022/04/05 01:44:52;;;;;;;5.30;4.80;;;20.70;45.60;;;;;;5009879;28;20208;-67
2022/04/05 01:47:19;;;;;;;7.22;5.25;;;20.80;45.70;;;;;;5006013;28;20199;-67
2022/04/05 01:49:50;;;;;;;6.10;5.00;;;20.70;45.60;;;;;;5011795;28;20678;-67
2022/04/05 01:52:17;;;;;;;6.47;5.07;;;20.70;45.60;;;;;;4995402;28;20192;-67
2022/04/05 01:54:45;;;;;;;6.10;5.30;;;20.70;45.70;;;;;;5012579;28;20208;-67
2022/04/05 01:57:11;;;;;;;5.57;4.80;;;20.70;45.60;;;;;;4994957;28;20208;-67
2022/04/05 01:59:39;;;;;;;5.65;5.07;;;20.70;45.60;;;;;;5012678;28;20192;-67
2022/04/05 02:02:10;;;;;;;5.85;5.25;;;20.70;45.60;;;;;;5012686;28;20663;-67
2022/04/05 02:04:37;;;;;;;5.63;4.70;;;20.70;45.50;;;;;;4994887;28;20207;-67
2022/04/05 02:07:13;;;;;;;6.28;5.00;;;20.70;45.70;;;;;;4995057;28;20286;-67
2022/04/05 02:09:39;;;;;;;6.88;5.35;;;20.70;45.60;;;;;;5011579;28;20188;-67
2022/04/05 02:12:06;;;;;;;5.45;4.95;;;20.70;45.60;;;;;;5011343;28;20188;-67
2022/04/05 02:14:58;;;;;;;5.70;4.97;;;20.70;45.60;;;;;;5009948;28;20261;-67
2022/04/05 02:17:33;;;;;;;5.80;5.25;;;20.70;45.70;;;;;;5027561;28;20215;-67
2022/04/05 02:20:04;;;;;;;6.47;5.20;;;20.70;45.60;;;;;;5011156;28;20184;-67
2022/04/05 02:22:30;;;;;;;5.47;4.80;;;20.70;45.60;;;;;;5011379;28;20176;-67
2022/04/05 02:25:03;;;;;;;5.25;4.68;;;20.70;45.70;;;;;;5027365;28;20183;-67
2022/04/05 02:27:33;;;;;;;6.35;4.95;;;20.70;45.70;;;;;;5010834;28;20191;-67
2022/04/05 02:30:00;;;;;;;6.43;5.32;;;20.70;45.70;;;;;;5012209;28;20184;-67
2022/04/05 02:32:26;;;;;;;6.75;5.20;;;20.70;45.70;;;;;;5010942;28;20188;-67
2022/04/05 02:34:54;;;;;;;5.15;4.60;;;20.70;45.70;;;;;;5048150;23;20258;-70
2022/04/05 02:37:21;;;;;;;5.38;4.75;;;20.70;45.70;;;;;;5014992;28;20210;-71
2022/04/05 02:39:52;;;;;;;5.88;4.68;;;20.70;45.70;;;;;;4999377;28;20186;-71
2022/04/05 02:42:18;;;;;;;5.20;4.60;;;20.70;45.70;;;;;;5007431;28;20191;-71
2022/04/05 02:44:46;;;;;;;4.93;4.43;;;20.70;45.70;;;;;;5022544;28;20213;-71
2022/04/05 02:47:14;;;;;;;4.88;4.38;;;20.70;45.70;;;;;;5028130;28;20265;-71
2022/04/05 02:49:41;;;;;;;5.85;4.70;;;20.70;45.70;;;;;;5024183;28;20191;-71
2022/04/05 02:52:15;;;;;;;4.97;4.43;;;20.70;45.70;;;;;;4994904;28;20187;-70
2022/04/05 02:54:47;;;;;;;5.20;4.43;;;20.70;45.70;;;;;;5022269;28;20203;-71
2022/04/05 02:57:18;;;;;;;5.88;4.70;;;20.70;45.70;;;;;;5034629;28;20210;-71
2022/04/05 02:59:45;;;;;;;4.65;4.15;;;20.70;45.70;;;;;;5034547;28;20190;-71
2022/04/05 03:02:10;;;;;;;5.22;4.72;;;20.70;45.70;;;;;;5034250;28;20182;-71
2022/04/05 03:04:38;;;;;;;5.15;4.55;;;20.70;45.70;;;;;;5017835;28;20207;-71
2022/04/05 03:07:07;;;;;;;5.13;4.40;;;20.70;45.70;;;;;;5052356;28;20190;-71
2022/04/05 03:09:33;;;;;;;5.13;4.63;;;20.70;45.70;;;;;;5051055;28;20263;-71
2022/04/05 03:11:59;;;;;;;4.95;4.38;;;20.70;45.70;;;;;;5034303;28;20190;-70
2022/04/05 03:14:27;;;;;;;5.03;4.15;;;20.70;45.70;;;;;;5010757;28;20206;-71
2022/04/05 03:16:54;;;;;;;4.78;4.38;;;20.70;45.70;;;;;;5006518;28;20226;-71
2022/04/05 03:19:20;;;;;;;5.20;4.50;;;20.70;45.70;;;;;;5014513;28;20199;-71
2022/04/05 03:21:49;;;;;;;4.78;3.95;;;20.70;45.80;;;;;;5014808;28;20202;-71
2022/04/05 03:24:15;;;;;;;5.03;4.30;;;20.70;45.70;;;;;;5014384;28;20248;-71
2022/04/05 03:26:41;;;;;;;5.20;4.20;;;20.70;45.80;;;;;;5014330;28;20180;-71
2022/04/05 03:29:07;;;;;;;4.53;4.07;;;20.70;45.70;;;;;;5014780;28;20194;-71
2022/04/05 03:31:32;;;;;;;4.43;3.97;;;20.70;45.70;;;;;;5014695;28;20176;-71
2022/04/05 03:33:59;;;;;;;5.25;4.50;;;20.70;45.70;;;;;;5014922;28;20222;-71
2022/04/05 03:36:25;;;;;;;4.93;4.43;;;20.70;45.70;;;;;;4999465;28;20215;-71
2022/04/05 03:38:51;;;;;;;4.28;3.88;;;20.70;45.80;;;;;;5013970;28;20253;-71
2022/04/05 03:41:17;;;;;;;4.38;3.95;;;20.70;45.80;;;;;;5002062;28;20179;-71
2022/04/05 03:43:44;;;;;;;4.47;4.07;;;20.70;45.80;;;;;;5019085;28;20753;-71
2022/04/05 03:46:15;;;;;;;4.70;4.25;;;20.70;45.80;;;;;;5046267;28;20190;-71
2022/04/05 03:48:42;;;;;;;3.95;3.55;;;20.70;45.80;;;;;;5021750;28;20649;-70
2022/04/05 03:51:09;;;;;;;5.28;4.30;;;20.70;45.80;;;;;;5037572;28;20381;-71
2022/04/05 03:53:37;;;;;;;4.13;3.72;;;20.70;45.80;;;;;;5037860;28;20203;-71
2022/04/05 03:56:10;;;;;;;5.10;4.40;;;20.70;45.80;;;;;;5037235;28;20198;-71
2022/04/05 03:58:36;;;;;;;4.30;3.83;;;20.70;45.80;;;;;;5037446;28;20259;-71
2022/04/05 04:01:03;;;;;;;4.40;3.92;;;20.60;46.30;;;;;;5037758;28;20673;-71
2022/04/05 04:03:31;;;;;;;4.40;3.78;;;20.60;45.80;;;;;;5055254;28;20198;-72
2022/04/05 04:05:59;;;;;;;5.32;3.85;;;20.60;45.80;;;;;;5053760;28;20269;-71
2022/04/05 04:08:26;;;;;;;4.80;3.90;;;20.70;45.90;;;;;;5054300;28;20225;-71
2022/04/05 04:10:52;;;;;;;4.55;4.03;;;20.60;45.80;;;;;;5037555;28;20262;-71
2022/04/05 04:13:21;;;;;;;4.45;4.03;;;20.70;45.80;;;;;;5020940;28;20198;-71
2022/04/05 04:15:50;;;;;;;4.38;3.97;;;20.60;45.90;;;;;;5042218;28;20190;-71
2022/04/05 04:18:16;;;;;;;4.63;4.07;;;20.70;45.80;;;;;;5037326;28;20211;-71
2022/04/05 04:20:45;;;;;;;4.30;3.90;;;20.70;45.80;;;;;;5037364;28;20185;-71
2022/04/05 04:23:16;;;;;;;4.22;3.83;;;20.60;45.80;;;;;;5036985;28;20209;-71
2022/04/05 04:25:45;;;;;;;4.07;3.45;;;20.70;45.80;;;;;;5021133;28;20175;-70
2022/04/05 04:28:11;;;;;;;4.10;3.70;;;20.70;45.80;;;;;;5036872;28;20178;-71
2022/04/05 04:30:39;;;;;;;4.07;3.63;;;20.70;45.80;;;;;;5043609;28;20245;-71
2022/04/05 04:33:08;;;;;;;4.00;3.47;;;20.70;45.90;;;;;;5013665;28;20184;-71
2022/04/05 04:35:38;;;;;;;5.15;4.00;;;20.70;45.90;;;;;;5013519;28;20184;-72
2022/04/05 04:38:06;;;;;;;4.30;3.72;;;20.60;45.80;;;;;;5012512;28;20211;-71
2022/04/05 04:40:33;;;;;;;4.00;3.58;;;20.70;45.90;;;;;;5017092;28;20189;-72
2022/04/05 04:42:59;;;;;;;3.85;3.47;;;20.70;45.80;;;;;;5016949;28;20294;-72
2022/04/05 04:45:28;;;;;;;4.32;3.60;;;20.70;45.80;;;;;;5042613;28;20176;-71
2022/04/05 04:47:55;;;;;;;3.90;3.53;;;20.60;45.80;;;;;;5035696;28;20182;-71
2022/04/05 04:50:21;;;;;;;4.57;3.58;;;20.70;45.80;;;;;;5036576;28;20244;-72
2022/04/05 04:52:47;;;;;;;4.15;3.75;;;20.60;45.80;;;;;;5037055;28;20171;-71
2022/04/05 04:55:12;;;;;;;4.38;3.75;;;20.60;45.80;;;;;;5036433;28;20210;-72
2022/04/05 04:57:38;;;;;;;4.55;3.60;;;20.60;45.80;;;;;;5037008;28;20221;-72
2022/04/05 05:00:06;;;;;;;3.88;3.55;;;20.60;45.80;;;;;;5036326;28;20190;-71
2022/04/05 05:02:51;;;;;;;3.85;3.20;;;20.60;45.80;;;;;;5053067;28;20197;-71
2022/04/05 05:05:19;;;;;;;4.63;3.38;;;20.60;45.80;;;;;;5054075;28;20170;-70
2022/04/05 05:07:47;;;;;;;3.75;3.40;;;20.60;45.90;;;;;;5036339;28;20182;-70
2022/04/05 05:10:14;;;;;;;3.72;3.42;;;20.60;45.90;;;;;;5020355;28;20193;-71
2022/04/05 05:12:41;;;;;;;5.20;3.70;;;20.60;45.90;;;;;;5019058;28;20186;-72
2022/04/05 05:15:08;;;;;;;3.55;3.25;;;20.60;45.90;;;;;;5027766;28;20206;-72
2022/04/05 05:17:36;;;;;;;4.13;3.50;;;20.60;45.80;;;;;;5037603;28;20211;-71
2022/04/05 05:20:03;;;;;;;3.95;3.55;;;20.60;45.80;;;;;;5000217;28;20187;-71
2022/04/05 05:22:29;;;;;;;3.47;3.17;;;20.60;45.80;;;;;;5033862;28;20175;-71
2022/04/05 05:24:54;;;;;;;3.60;3.30;;;20.60;45.80;;;;;;5016168;28;20207;-71
2022/04/05 05:27:20;;;;;;;4.07;3.67;;;20.60;45.80;;;;;;5032851;28;20194;-72
2022/04/05 05:29:46;;;;;;;4.38;3.97;;;20.60;45.80;;;;;;5016115;28;20274;-71
2022/04/05 05:32:12;;;;;;;3.95;3.65;;;20.60;45.80;;;;;;5016060;28;20179;-71
2022/04/05 05:34:37;;;;;;;3.28;2.97;;;20.60;45.80;;;;;;5032340;28;20302;-72
2022/04/05 05:37:05;;;;;;;3.20;2.90;;;20.60;45.80;;;;;;5015785;28;20241;-71
2022/04/05 05:39:32;;;;;;;2.88;2.58;;;20.60;45.90;;;;;;5033567;28;20673;-71
2022/04/05 05:41:58;;;;;;;3.63;3.10;;;20.60;45.90;;;;;;5016050;28;20198;-71
2022/04/05 05:44:24;;;;;;;3.70;3.00;;;20.60;45.90;;;;;;5032217;28;20261;-71
2022/04/05 05:46:51;;;;;;;3.10;2.80;;;20.60;45.90;;;;;;5023449;28;20207;-72
2022/04/05 05:49:17;;;;;;;3.53;3.22;;;20.60;45.90;;;;;;4998766;28;20183;-72
2022/04/05 05:51:43;;;;;;;3.38;3.08;;;20.60;45.90;;;;;;5015181;28;20191;-72
2022/04/05 05:54:09;;;;;;;3.80;3.30;;;20.60;45.90;;;;;;5015055;28;20207;-71
2022/04/05 05:56:35;;;;;;;3.40;3.08;;;20.60;45.90;;;;;;5015055;28;20211;-71
2022/04/05 05:59:01;;;;;;;3.53;3.05;;;20.60;45.90;;;;;;5015203;28;20191;-71
2022/04/05 06:01:26;;;;;;;3.65;3.10;;;20.60;45.90;;;;;;5015077;28;20223;-71
2022/04/05 06:03:52;;;;;;;3.45;3.15;;;20.60;45.90;;;;;;5014574;28;20285;-71
2022/04/05 06:06:18;;;;;;;3.42;3.13;;;20.60;45.90;;;;;;5014884;28;20190;-71
2022/04/05 06:08:44;;;;;;;4.03;3.17;;;20.60;45.90;;;;;;5032161;28;20262;-71
2022/04/05 06:11:10;;;;;;;3.40;3.10;;;20.60;45.90;;;;;;5031278;28;20184;-71
2022/04/05 06:13:37;;;;;;;3.95;3.33;;;20.60;45.90;;;;;;5014822;28;20736;-71
2022/04/05 06:16:03;;;;;;;3.53;3.20;;;20.60;45.90;;;;;;5043744;28;20324;-72
2022/04/05 06:18:29;;;;;;;3.50;3.20;;;20.60;45.90;;;;;;5034391;28;20650;-71
2022/04/05 06:20:55;;;;;;;3.20;2.90;;;20.60;45.90;;;;;;5052393;28;20190;-72
2022/04/05 06:23:20;;;;;;;3.80;3.33;;;20.60;45.90;;;;;;5052241;28;20202;-71
2022/04/05 06:25:46;;;;;;;3.33;3.03;;;20.60;45.90;;;;;;5052170;28;20316;-71
2022/04/05 06:28:12;;;;;;;3.40;3.10;;;20.60;45.90;;;;;;5034299;28;20222;-71
2022/04/05 06:30:39;;;;;;;3.15;2.85;;;20.60;45.90;;;;;;5052157;28;20267;-71
2022/04/05 06:33:15;;;;;;;3.33;3.00;;;20.60;45.80;;;;;;5033879;28;20213;-72
2022/04/05 06:35:48;;;;;;;3.38;3.08;;;20.60;45.90;;;;;;5017547;28;20190;-71
2022/04/05 06:38:15;;;;;;;3.60;2.80;;;20.60;45.90;;;;;;5052167;28;20210;-72
2022/04/05 06:40:43;;;;;;;3.00;2.70;;;20.60;45.90;;;;;;5051951;28;20181;-72
2022/04/05 06:43:10;;;;;;;2.90;2.70;;;20.60;45.90;;;;;;5034028;28;20182;-72
2022/04/05 06:45:36;;;;;;;3.42;2.92;;;20.60;45.90;;;;;;5041359;28;20190;-72
2022/04/05 06:48:03;;;;;;;2.90;2.60;;;20.60;45.90;;;;;;5017879;28;20190;-72
2022/04/05 06:50:30;;;;;;;3.63;2.85;;;20.60;46.00;;;;;;5034247;28;20202;-72
2022/04/05 06:52:59;;;;;;;3.97;2.95;;;20.60;46.00;;;;;;5034098;28;20186;-71
2022/04/05 06:55:26;;;;;;;3.42;3.10;;;20.60;46.00;;;;;;5017495;28;20191;-72
2022/04/05 06:57:52;;;;;;;3.03;2.72;;;20.60;46.00;;;;;;5033866;28;20210;-72
2022/04/05 07:00:22;;;;;;;3.83;3.35;;;20.60;46.00;;;;;;5033959;28;20174;-72
2022/04/05 07:02:48;;;;;;;3.83;3.50;;;20.60;45.90;;;;;;5050525;28;20182;-71
2022/04/05 07:05:14;;;;;;;3.13;2.83;;;20.60;45.90;;;;;;5033983;28;20194;-72
2022/04/05 07:07:40;;;;;;;3.45;2.85;;;20.60;45.90;;;;;;5034146;28;20269;-71
2022/04/05 07:10:09;;;;;;;3.97;3.38;;;20.60;45.90;;;;;;5017541;28;20285;-71
2022/04/05 07:12:35;;;;;;;2.80;2.60;;;20.60;45.90;;;;;;5033767;28;20240;-71
2022/04/05 07:15:02;;;;;;;3.33;3.08;;;20.60;45.90;;;;;;5032537;28;20205;-72
2022/04/05 07:17:28;;;;;;;3.33;3.03;;;20.60;45.90;;;;;;5040167;28;20211;-72
2022/04/05 07:19:54;;;;;;;3.30;3.00;;;20.60;45.90;;;;;;5018097;28;20180;-71
2022/04/05 07:22:20;;;;;;;2.95;2.75;;;20.60;46.00;;;;;;5035787;28;20241;-71
2022/04/05 07:24:47;;;;;;;3.83;3.10;;;20.60;46.00;;;;;;5018218;28;20214;-72
2022/04/05 07:27:14;;;;;;;3.92;2.60;;;20.60;45.90;;;;;;5018207;28;20179;-71
2022/04/05 07:29:40;;;;;;;2.80;2.60;;;20.60;45.90;;;;;;5035272;28;20183;-71
2022/04/05 07:32:06;;;;;;;3.72;2.97;;;20.60;45.90;;;;;;5020482;28;20183;-71
2022/04/05 07:34:33;;;;;;;3.50;2.92;;;20.60;45.90;;;;;;5035430;28;20217;-72
2022/04/05 07:36:59;;;;;;;2.90;2.60;;;20.60;46.00;;;;;;5017440;28;20310;-71
2022/04/05 07:39:25;;;;;;;2.83;2.63;;;20.60;46.00;;;;;;5001406;28;20558;-71
2022/04/05 07:41:52;;;;;;;3.15;2.85;;;20.70;46.10;;;;;;5001331;28;20183;-70
2022/04/05 07:44:18;;;;;;;3.00;2.80;;;20.60;46.60;;;;;;5023069;28;20232;-71
2022/04/05 07:46:44;;;;;;;3.38;3.05;;;20.70;46.10;;;;;;5028784;28;20174;-71
2022/04/05 07:49:10;;;;;;;4.40;3.10;;;20.60;46.00;;;;;;5037182;28;20213;-71
2022/04/05 07:51:36;;;;;;;2.92;2.65;;;20.60;46.00;;;;;;5037157;28;20198;-71
2022/04/05 07:54:05;;;;;;;3.20;2.80;;;20.60;46.00;;;;;;5053826;28;20213;-72
2022/04/05 07:56:31;;;;;;;2.95;2.75;;;20.60;46.00;;;;;;5036975;28;20263;-71
2022/04/05 07:58:57;;;;;;;2.58;2.38;;;20.60;46.00;;;;;;5037310;28;20194;-70
2022/04/05 08:01:24;;;;;;;3.65;2.95;;;20.60;46.00;;;;;;5012779;28;20238;-71
2022/04/05 08:03:51;;;;;;;3.13;2.83;;;20.60;46.00;;;;;;5035075;28;20265;-71
2022/04/05 08:06:17;;;;;;;2.63;2.42;;;20.60;46.00;;;;;;5031718;28;20237;-72
2022/04/05 08:08:43;;;;;;;3.20;2.90;;;20.60;46.00;;;;;;5033533;28;20686;-72
2022/04/05 08:11:09;;;;;;;2.95;2.70;;;20.60;46.00;;;;;;5024031;28;20179;-72
2022/04/05 08:13:34;;;;;;;3.33;2.50;;;20.60;46.00;;;;;;5017024;28;20207;-71
2022/04/05 08:16:00;;;;;;;2.92;2.70;;;20.60;45.90;;;;;;5046130;28;20672;-72
2022/04/05 08:18:26;;;;;;;3.10;2.80;;;20.60;46.00;;;;;;5037085;28;20206;-71
2022/04/05 08:20:52;;;;;;;2.40;2.20;;;20.60;46.00;;;;;;5036663;28;20178;-70
2022/04/05 08:23:18;;;;;;;2.90;2.60;;;20.60;46.00;;;;;;5054510;28;20203;-71
2022/04/05 08:25:43;;;;;;;2.95;2.75;;;20.60;46.00;;;;;;5035948;28;20190;-72
2022/04/05 08:28:09;;;;;;;2.50;2.30;;;20.60;46.00;;;;;;5054540;28;20182;-71
2022/04/05 08:30:35;;;;;;;3.22;2.92;;;20.60;46.00;;;;;;5036458;28;20182;-71
2022/04/05 08:33:01;;;;;;;2.80;2.60;;;20.60;46.00;;;;;;5052888;28;20235;-72
2022/04/05 08:35:27;;;;;;;2.80;2.60;;;20.70;46.10;;;;;;5075678;22;20234;-67
2022/04/05 08:37:55;;;;;;;2.55;2.35;;;20.70;46.10;;;;;;5036263;28;20348;-67
2022/04/05 08:40:24;;;;;;;3.17;2.88;;;20.70;46.10;;;;;;5019759;28;20279;-67
2022/04/05 08:42:54;;;;;;;2.88;2.65;;;20.60;46.00;;;;;;5020069;28;20183;-67
2022/04/05 08:45:22;;;;;;;2.97;2.67;;;20.60;46.00;;;;;;5014842;28;20225;-67
2022/04/05 08:47:53;;;;;;;3.00;2.80;;;20.60;46.00;;;;;;5014521;28;20195;-67
2022/04/05 08:50:28;;;;;;;3.20;2.70;;;20.60;46.00;;;;;;5016535;28;20197;-67
2022/04/05 08:52:56;;;;;;;2.88;2.60;;;20.60;46.00;;;;;;5016216;28;20201;-67
2022/04/05 08:55:22;;;;;;;3.03;2.40;;;20.60;46.10;;;;;;5016016;28;20213;-68
2022/04/05 08:57:48;;;;;;;2.80;2.60;;;20.60;46.10;;;;;;5016044;28;20616;-67
2022/04/05 09:00:19;;;;;;;2.85;2.63;;;20.60;46.00;;;;;;5032633;28;20190;-67
2022/04/05 09:03:05;;;;;;;2.40;2.20;;;20.70;46.20;;;;;;5015946;28;20248;-66
2022/04/05 09:05:38;;;;;;;2.60;2.40;;;20.70;46.20;;;;;;5015411;28;20199;-67
2022/04/05 09:08:20;;;;;;;2.42;2.22;;;20.70;46.20;;;;;;5016757;28;20195;-67
2022/04/05 09:11:03;;;;;;;2.85;2.47;;;20.70;46.20;;;;;;5016235;28;20183;-67
2022/04/05 09:13:29;;;;;;;3.05;2.75;;;20.70;46.80;;;;;;5025720;28;20409;-66
2022/04/05 09:15:58;;;;;;;2.70;2.50;;;20.70;46.20;;;;;;5016064;28;20218;-67
2022/04/05 09:18:44;;;;;;;2.60;2.40;;;20.70;46.20;;;;;;5033977;28;20211;-66
2022/04/05 09:21:14;;;;;;;2.80;2.60;;;20.70;46.20;;;;;;5033911;28;20171;-67
2022/04/05 09:23:43;;;;;;;2.50;2.30;;;20.70;46.20;;;;;;5015990;28;20222;-67
2022/04/05 09:26:11;;;;;;;2.50;2.30;;;20.70;46.20;;;;;;5015981;28;20654;-67
2022/04/05 09:28:41;;;;;;;2.60;2.20;;;20.70;46.20;;;;;;5016069;28;20196;-66
2022/04/05 09:31:14;;;;;;;2.55;2.35;;;20.70;46.20;;;;;;5033866;28;20183;-67
2022/04/05 09:34:13;;;;;;;2.33;2.13;;;20.70;46.20;;;;;;5033410;28;20631;-66
2022/04/05 09:37:08;;;;;;;2.78;2.58;;;20.70;46.20;;;;;;5033092;28;20199;-67
2022/04/05 09:39:33;;;;;;;2.85;2.65;;;20.60;46.20;;;;;;5015818;28;20182;-66
2022/04/05 09:42:01;;;;;;;3.78;2.28;;;20.60;46.20;;;;;;5015980;28;20183;-67
2022/04/05 09:44:33;;;;;;;2.67;2.47;;;20.70;46.20;;;;;;5015859;28;20207;-66
2022/04/05 09:47:17;;;;;;;2.53;2.33;;;20.70;46.20;;;;;;5015442;28;20198;-66
2022/04/05 09:49:46;;;;;;;2.40;2.20;;;20.60;46.20;;;;;;5013371;28;20670;-67
2022/04/05 09:52:33;;;;;;;2.80;2.60;;;20.60;46.20;;;;;;5012040;28;20689;-67
2022/04/05 09:55:16;;;;;;;2.53;2.33;;;20.70;46.30;;;;;;5015116;28;20210;-65
2022/04/05 09:57:43;;;;;;;3.10;2.50;;;20.70;46.30;;;;;;5017841;28;20203;-66
2022/04/05 10:00:19;;;;;;;2.50;2.30;;;20.70;46.30;;;;;;5028578;28;20554;-66
2022/04/05 10:03:11;;;;;;;2.85;2.50;;;20.70;46.30;;;;;;5031744;28;20684;-67
2022/04/05 10:05:39;;;;;;;2.63;2.42;;;20.60;46.30;;;;;;5032829;28;20195;-67
2022/04/05 10:08:06;;;;;;;2.65;2.38;;;20.70;46.40;;;;;;5015165;28;20197;-67
2022/04/05 10:10:31;;;;;;;3.75;2.58;;;20.70;46.30;;;;;;5015041;28;20198;-67
2022/04/05 10:12:57;;;;;;;2.50;2.30;;;20.70;46.40;;;;;;5014902;28;20183;-67
2022/04/05 10:15:25;;;;;;;2.90;2.60;;;20.70;46.40;;;;;;5007983;28;20679;-67
2022/04/05 10:17:57;;;;;;;2.97;2.35;;;20.70;46.30;;;;;;5029788;28;20203;-67
2022/04/05 10:20:27;;;;;;;2.33;1.90;;;20.70;46.40;;;;;;5011566;28;20188;-68
2022/04/05 10:22:56;;;;;;;2.65;2.30;;;20.70;46.40;;;;;;5030675;28;20190;-66
2022/04/05 10:25:23;;;;;;;2.53;2.33;;;20.70;46.40;;;;;;5014429;28;20214;-67
2022/04/05 10:27:50;;;;;;;2.63;2.42;;;20.70;46.40;;;;;;5015122;28;20190;-67
2022/04/05 10:30:27;;;;;;;2.50;2.30;;;20.70;46.40;;;;;;5031589;28;20233;-67
2022/04/05 10:33:22;;;;;;;2.60;2.40;;;20.70;46.40;;;;;;5030032;28;20195;-67
2022/04/05 10:35:57;;;;;;;2.80;2.60;;;20.70;46.40;;;;;;4987968;28;20256;-67
2022/04/05 10:38:24;;;;;;;2.60;2.40;;;20.70;46.50;;;;;;5027996;28;20219;-68
2022/04/05 10:41:17;;;;;;;2.40;2.20;;;20.70;46.50;;;;;;5012894;28;20198;-67
2022/04/05 10:43:46;;;;;;;2.58;2.38;;;20.70;46.50;;;;;;5031066;28;20599;-66
2022/04/05 10:46:12;;;;;;;2.38;2.17;;;20.70;47.10;;;;;;5004759;28;20678;-67
2022/04/05 10:48:55;;;;;;;2.45;2.25;;;20.70;46.50;;;;;;5032232;28;20191;-67
2022/04/05 10:51:30;;;;;;;2.25;2.05;;;20.70;46.50;;;;;;5014713;28;20191;-67
2022/04/05 10:54:17;;;;;;;2.60;2.40;;;20.70;46.50;;;;;;5014954;28;20210;-67
2022/04/05 10:57:28;;;;;;;2.60;2.40;;;20.70;46.50;;;;;;5014462;28;20265;-67
2022/04/05 10:59:57;;;;;;;2.65;2.45;;;20.70;46.50;;;;;;5014888;28;20245;-67
2022/04/05 11:02:51;;;;;;;3.05;2.30;;;20.70;46.50;;;;;;5014836;28;20229;-67
2022/04/05 11:05:19;;;;;;;2.67;2.28;;;20.70;46.50;;;;;;5032030;28;20199;-65
2022/04/05 11:07:54;;;;;;;2.38;2.17;;;20.70;46.60;;;;;;5014597;28;20195;-67
2022/04/05 11:10:29;;;;;;;2.92;2.53;;;20.70;46.60;;;;;;5014611;28;20194;-67
2022/04/05 11:13:29;;;;;;;2.67;2.47;;;20.70;46.60;;;;;;5014490;28;20233;-67
2022/04/05 11:15:57;;;;;;;2.83;2.30;;;20.70;46.60;;;;;;5014310;28;20337;-67
2022/04/05 11:18:30;;;;;;;2.40;2.20;;;20.70;46.70;;;;;;5014508;28;20242;-67
2022/04/05 11:20:57;;;;;;;2.65;2.30;;;20.70;46.60;;;;;;5014677;28;20182;-66
2022/04/05 11:23:44;;;;;;;2.97;2.35;;;20.70;46.60;;;;;;5014694;28;20187;-65
2022/04/05 11:26:39;;;;;;;2.40;2.20;;;20.70;46.60;;;;;;5031876;28;20175;-67
2022/04/05 11:29:20;;;;;;;2.50;2.20;;;20.70;46.60;;;;;;5030545;28;20191;-67
2022/04/05 11:31:48;;;;;;;2.63;2.33;;;20.70;46.60;;;;;;4997922;28;20557;-67
2022/04/05 11:34:46;;;;;;;2.00;1.90;;;20.70;46.70;;;;;;5032010;28;20211;-67
2022/04/05 11:37:12;;;;;;;2.30;2.10;;;20.70;46.60;;;;;;5030604;28;20269;-67
2022/04/05 11:39:42;;;;;;;2.40;2.20;;;20.80;46.70;;;;;;5014440;28;20179;-67
2022/04/05 11:42:09;;;;;;;2.30;2.10;;;20.70;46.60;;;;;;5030524;28;20226;-65
2022/04/05 11:44:35;;;;;;;3.47;2.10;;;20.70;46.60;;;;;;5030499;28;20215;-67
2022/04/05 11:47:02;;;;;;;1.92;1.83;;;20.70;46.70;;;;;;5023373;28;20230;-67
2022/04/05 11:49:41;;;;;;;2.40;2.10;;;20.70;46.70;;;;;;5014303;28;20562;-67
2022/04/05 11:52:10;;;;;;;2.25;2.05;;;20.70;46.70;;;;;;5014492;28;20186;-66
2022/04/05 11:56:00;;;;;;;2.53;2.30;;;20.70;46.80;;;;;;5031733;28;20207;-66
2022/04/05 11:57:21;;;;;;;2.53;2.33;;;20.80;46.80;;;;;;5013862;28;20297;-66
2022/04/05 11:59:47;;;;;;;2.40;2.20;;;20.80;46.80;;;;;;5030623;28;20262;-66
2022/04/05 12:02:13;;;;;;;2.35;2.08;;;20.80;46.90;;;;;;5034037;28;20176;-66
2022/04/05 12:04:38;;;;;;;2.53;2.20;;;20.70;46.80;;;;;;5017919;28;20369;-65
2022/04/05 12:07:04;;;;;;;2.10;1.80;;;20.70;46.80;;;;;;5017608;28;20192;-66
2022/04/05 12:09:32;;;;;;;2.20;2.00;;;20.70;46.80;;;;;;5017790;28;20191;-67
2022/04/05 12:12:04;;;;;;;2.10;1.90;;;20.70;46.80;;;;;;5035248;28;20199;-66
2022/04/05 12:14:32;;;;;;;2.50;2.30;;;20.70;46.90;;;;;;5017488;28;20203;-66
2022/04/05 12:17:01;;;;;;;2.85;2.13;;;20.70;46.90;;;;;;5034842;28;20234;-66
2022/04/05 12:19:39;;;;;;;3.10;2.00;;;20.80;47.00;;;;;;5017361;28;20623;-66
2022/04/05 12:22:18;;;;;;;2.28;2.08;;;20.70;46.90;;;;;;5017283;28;20286;-67
2022/04/05 12:24:50;;;;;;;1.85;1.70;;;20.80;47.00;;;;;;5011798;28;20207;-67
2022/04/05 12:27:21;;;;;;;2.25;2.05;;;20.70;46.90;;;;;;5034802;28;20182;-67
2022/04/05 12:29:47;;;;;;;2.60;2.00;;;20.70;47.50;;;;;;5017237;28;20673;-67
2022/04/05 12:32:14;;;;;;;2.50;2.17;;;20.80;47.00;;;;;;5017287;28;20223;-67
2022/04/05 12:34:42;;;;;;;2.47;2.20;;;20.80;47.00;;;;;;5005589;28;20219;-67
2022/04/05 12:37:14;;;;;;;2.17;1.92;;;20.70;47.00;;;;;;4997232;28;20212;-65
2022/04/05 12:39:43;;;;;;;2.45;2.13;;;20.80;47.00;;;;;;5013696;28;20246;-66
2022/04/05 12:42:10;;;;;;;2.28;2.08;;;20.70;47.00;;;;;;4997715;28;20230;-67
2022/04/05 12:44:39;;;;;;;2.65;1.98;;;20.80;47.00;;;;;;5007937;28;20206;-67
2022/04/05 12:47:15;;;;;;;2.20;2.00;;;20.80;47.10;;;;;;5025783;28;20184;-67
2022/04/05 12:49:44;;;;;;;2.88;1.90;;;20.70;47.70;;;;;;5033517;28;20254;-67
2022/04/05 12:52:20;;;;;;;2.30;2.10;;;20.80;47.10;;;;;;5001354;28;20192;-67
2022/04/05 12:55:00;;;;;;;2.20;1.83;;;20.70;47.00;;;;;;4997510;28;20622;-67
2022/04/05 12:57:35;;;;;;;2.50;2.30;;;20.80;47.10;;;;;;4997082;28;20206;-67
2022/04/05 13:00:20;;;;;;;2.10;1.90;;;20.80;47.20;;;;;;4997115;28;20230;-67